Dillant Hopkins Airport Keene US
ICAO: KEEN
IATA: EEN
Category: Medium
Scheduled Services: No

Elevation: 488 ft
TransAlt. 18000 ft.

Airport Communications:
AWOS 3:119.025
BOSTON CNTR:123.75
BANGOR RDO:109.4
CTAF/UNICOM:123

KEEN Zoom In..

If you have problems with the map follow the link
https://www.worldairports.se/pages/airport.php?
ICAO=KEEN

Runways:

(A) RW 02 length 6201 ft width 100 ft
ILS 108.90 / hdg 18

(B) RW 14 length 4001 ft width 150 ft
---- / hdg 142

(C) RW 20 length 6201 ft width 100 ft
---- / hdg 198

(D) RW 32 length 4001 ft width 150 ft
---- / hdg 322

Location; KEEN
Day. 12 / Time. 07.56 Zulu
* Altimeter: 30.48
* Temperature: -06° c. -21.2°f.
* Wind from: 000° Speed 00 kn.
Dewpoint: -15° c.
Visibility: 10 Statute Miles.
Clouds: Clear (automated report).

KEEN 120756Z AUTO 00000KT 10SM CLR M06/M15 A3048 RMK AO2 SLP332 T10611150 FZRANO $


Wind - Calm.

 
 
jpsmedia worldairports.se 2019   terms of use